Robbinsville, NC (28771)

7:18 PM EDT on August 28, 2014 (GMT -0400)
RAWS CHEOAH NC US | Change Station
CLOSE
Current Station
Personal Weather Station
Location: Robbinsville, NC
Elevation: 2000 ft
Nearby Weather Stations

Elev 2000 ft 35.34 °N, 83.82 °W | Updated 1 hour ago

Mostly Cloudy
Mostly Cloudy
89.0 °F
Feels Like 93 °F
N
3.0
Wind Variable Wind from SE
Gusts 7.0 mph

Today
High -- | Low -- °F
--% Chance of Precip.
Yesterday
High -- | Low -- °F
Precip. -- in
7:04 AM 8:07 PM
Waxing Crescent, 10% visible
Pressure 30.04 in
Visibility 10.0 miles
Clouds Scattered Clouds 6500 ft
Mostly Cloudy 7500 ft
Heat Index 93 °F
Dew Point 68.0 °F
Humidity 51%
Rainfall 0.00 in
Snow Depth Not available.
UV 0 out of 12
Pollen 9.60 out of 12
Air Quality Not available.
Flu Activity Not available.
METAR KRHP 282255Z AUTO 27003KT 10SM SCT065 BKN075 28/21 A3004 RMK AO2 T02840208

More Conditions Fewer Conditions

Pressure 30.04 in
Visibility 10.0 miles
Clouds Scattered Clouds 6500 ft
Mostly Cloudy 7500 ft
Heat Index 93 °F
Dew Point 68.0 °F
Humidity 51%
Rainfall 0.00 in
Snow Depth Not available.
UV 0 out of 12
Pollen 9.60 out of 12
Air Quality Not available.
Flu Activity Not available.
METAR KRHP 282255Z AUTO 27003KT 10SM SCT065 BKN075 28/21 A3004 RMK AO2 T02840208

More Conditions Fewer Conditions

10-Day Weather Forecast

Almanac

Astronomy

Aug. 28, 2014 Rise Set
Actual Time 7:04 AM EDT 8:07 PM EDT
Civil Twilight 6:38 AM EDT 8:33 PM EDT
Nautical Twilight 6:07 AM EDT 9:04 PM EDT
Astronomical Twilight 5:35 AM EDT 9:37 PM EDT
Moon 9:48 AM EDT 9:39 PM EDT
Length of Visible Light 13h 55m
Length of Day
13h 03m
Tomorrow will be 2m 6s shorter.
Waxing Crescent, 10% of the Moon is Illuminated
Today
Waxing Crescent
Sep 2
First Quarter
Sep 8
Full
Sep 15
Last Quarter
Sep 24
New

Today's Extremes

State Highs State Lows

Community

WunderPhotos

Upload Photos

1,748,102 photos uploaded!

Nearby

Snow Depth

Station Depth Elevation
No new snow has been reported.

Earthquake Activity

City Distance Mag. Time & Date
No recent earthquake activity has been reported nearby.
Minimum magnitude displayed is 2.5.

Coastal Water Temperatures

Place Temperature
No Stations Reporting

Nearby Weather Stations